createdAt,value
2023-02-18T00:01:15.630Z,63.69
2023-02-18T00:04:13.334Z,63.70
2023-02-18T00:07:10.815Z,63.70
2023-02-18T00:10:08.464Z,63.70
2023-02-18T00:13:06.087Z,63.70
2023-02-18T00:16:03.743Z,63.70
2023-02-18T00:19:01.204Z,63.70
2023-02-18T00:21:58.831Z,63.64
2023-02-18T00:24:56.265Z,63.60
2023-02-18T00:27:53.891Z,63.57
2023-02-18T00:30:51.392Z,63.52
2023-02-18T00:33:49.053Z,63.53
2023-02-18T00:36:47.412Z,63.58
2023-02-18T00:39:45.014Z,63.58
2023-02-18T00:42:42.844Z,63.60
2023-02-18T00:45:40.335Z,63.58
2023-02-18T00:48:38.170Z,63.57
2023-02-18T00:51:35.938Z,63.56
2023-02-18T00:54:33.403Z,63.57
2023-02-18T00:57:31.164Z,63.60
2023-02-18T01:00:28.613Z,63.60
2023-02-18T01:03:26.599Z,63.60
2023-02-18T01:06:24.041Z,63.60
2023-02-18T01:09:21.728Z,63.58
2023-02-18T01:12:19.474Z,63.54
2023-02-18T01:15:16.944Z,63.50
2023-02-18T01:18:14.712Z,63.50
2023-02-18T01:21:12.165Z,63.51
2023-02-18T01:24:09.794Z,63.51
2023-02-18T01:27:07.274Z,63.56
2023-02-18T01:30:04.992Z,63.59
2023-02-18T01:33:03.470Z,63.60
2023-02-18T01:36:01.127Z,63.67
2023-02-18T01:38:58.872Z,63.71
2023-02-18T01:41:56.299Z,63.75
2023-02-18T01:44:53.945Z,63.80
2023-02-18T01:47:51.408Z,63.78
2023-02-18T01:50:49.063Z,63.78
2023-02-18T01:53:46.793Z,63.80
2023-02-18T01:56:44.239Z,63.80
2023-02-18T01:59:42.012Z,63.80
2023-02-18T02:02:39.492Z,63.83
2023-02-18T02:05:37.119Z,63.86
2023-02-18T02:08:34.570Z,63.85
2023-02-18T02:11:32.178Z,63.86
2023-02-18T02:14:29.928Z,63.88
2023-02-18T02:17:27.387Z,63.90
2023-02-18T02:20:25.119Z,63.89
2023-02-18T02:23:22.584Z,63.90
2023-02-18T02:26:20.396Z,63.91
2023-02-18T02:29:17.873Z,63.89
2023-02-18T02:32:15.497Z,63.86
2023-02-18T02:35:12.962Z,63.79
2023-02-18T02:38:10.719Z,63.72
2023-02-18T02:41:08.493Z,63.71
2023-02-18T02:44:05.935Z,63.70
2023-02-18T02:47:03.654Z,63.70
2023-02-18T02:50:01.122Z,63.70
2023-02-18T02:52:58.793Z,63.72
2023-02-18T02:55:56.290Z,63.78
2023-02-18T02:58:53.948Z,63.84
2023-02-18T03:01:51.626Z,63.94
2023-02-18T03:04:49.059Z,64.05
2023-02-18T03:07:46.721Z,64.13
2023-02-18T03:10:44.912Z,64.23
2023-02-18T03:13:42.684Z,64.33
2023-02-18T03:16:40.156Z,64.41
2023-02-18T03:19:37.933Z,64.47
2023-02-18T03:22:35.574Z,64.45
2023-02-18T03:25:33.018Z,64.47
2023-02-18T03:28:32.583Z,64.51
2023-02-18T03:31:30.113Z,64.50
2023-02-18T03:34:27.913Z,64.55
2023-02-18T03:37:27.620Z,64.59
2023-02-18T03:40:25.110Z,64.60
2023-02-18T03:43:22.846Z,64.64
2023-02-18T03:46:20.316Z,64.60
2023-02-18T03:49:18.070Z,64.60
2023-02-18T03:52:15.519Z,64.60
2023-02-18T03:55:13.295Z,64.60
2023-02-18T03:58:11.061Z,64.54
2023-02-18T04:01:08.612Z,64.48
2023-02-18T04:04:06.567Z,64.41
2023-02-18T04:07:04.009Z,64.34
2023-02-18T04:10:01.606Z,64.32
2023-02-18T04:12:59.058Z,64.30
2023-02-18T04:15:56.675Z,64.29
2023-02-18T04:18:54.323Z,64.29
2023-02-18T04:21:51.788Z,64.30
2023-02-18T04:24:49.441Z,64.31
2023-02-18T04:27:46.892Z,64.36
2023-02-18T04:30:44.889Z,64.39
2023-02-18T04:33:42.446Z,64.40
2023-02-18T04:36:40.148Z,64.45
2023-02-18T04:39:37.967Z,64.45
2023-02-18T04:42:35.441Z,64.47
2023-02-18T04:45:33.045Z,64.48
2023-02-18T04:48:30.532Z,64.45
2023-02-18T04:51:28.511Z,64.45
2023-02-18T04:54:25.987Z,64.48
2023-02-18T04:57:23.626Z,64.46
2023-02-18T05:00:21.087Z,64.49
2023-02-18T05:03:18.718Z,64.50
2023-02-18T05:06:16.348Z,64.58
2023-02-18T05:09:13.847Z,64.61
2023-02-18T05:12:11.558Z,64.63
2023-02-18T05:15:09.037Z,64.62
2023-02-18T05:18:06.753Z,64.60
2023-02-18T05:21:04.226Z,64.52
2023-02-18T05:24:01.869Z,64.51
2023-02-18T05:26:59.757Z,64.50
2023-02-18T05:29:57.273Z,64.50
2023-02-18T05:32:54.934Z,64.50
2023-02-18T05:35:52.386Z,64.52
2023-02-18T05:38:50.138Z,64.57
2023-02-18T05:41:47.574Z,64.55
2023-02-18T05:44:45.224Z,64.57
2023-02-18T05:47:42.650Z,64.57
2023-02-18T05:50:43.259Z,64.59
2023-02-18T05:53:41.024Z,64.59
2023-02-18T05:56:38.472Z,64.60
2023-02-18T05:59:36.540Z,64.62
2023-02-18T06:02:34.036Z,64.67
2023-02-18T06:05:31.856Z,64.71
2023-02-18T06:08:29.355Z,64.79
2023-02-18T06:11:27.010Z,64.83
2023-02-18T06:14:24.640Z,64.92
2023-02-18T06:17:22.769Z,65.00
2023-02-18T06:20:20.511Z,65.07
2023-02-18T06:23:17.985Z,65.15
2023-02-18T06:26:15.613Z,65.25
2023-02-18T06:29:13.394Z,65.33
2023-02-18T06:32:10.929Z,65.43
2023-02-18T06:35:08.830Z,65.52
2023-02-18T06:38:06.339Z,65.57
2023-02-18T06:41:04.168Z,65.60
2023-02-18T06:44:01.648Z,65.60
2023-02-18T06:46:59.380Z,65.68
2023-02-18T06:49:57.860Z,65.70
2023-02-18T06:52:55.308Z,65.75
2023-02-18T06:55:53.073Z,65.80
2023-02-18T06:58:50.546Z,65.82
2023-02-18T07:01:48.222Z,65.89
2023-02-18T07:04:46.528Z,65.91
2023-02-18T07:07:44.251Z,65.90
2023-02-18T07:10:42.128Z,65.90
2023-02-18T07:13:39.599Z,65.90
2023-02-18T07:16:37.377Z,65.90
2023-02-18T07:19:34.899Z,65.90
2023-02-18T07:22:32.679Z,65.90
2023-02-18T07:25:30.199Z,65.89
2023-02-18T07:28:27.908Z,65.89
2023-02-18T07:31:25.687Z,66.06
2023-02-18T07:34:23.916Z,66.07
2023-02-18T07:37:21.732Z,65.99
2023-02-18T07:40:19.188Z,66.02
2023-02-18T07:43:16.918Z,65.95
2023-02-18T07:46:14.431Z,65.91
2023-02-18T07:49:12.279Z,65.91
2023-02-18T07:52:10.039Z,65.90
2023-02-18T07:55:07.468Z,65.90
2023-02-18T07:58:05.277Z,65.90
2023-02-18T08:01:02.763Z,65.82
2023-02-18T08:04:01.455Z,65.84
2023-02-18T08:06:59.020Z,65.80
2023-02-18T08:09:56.720Z,65.72
2023-02-18T08:12:54.194Z,65.67
2023-02-18T08:15:51.880Z,65.60
2023-02-18T08:18:49.879Z,65.49
2023-02-18T08:21:47.556Z,65.40
2023-02-18T08:24:45.385Z,65.40
2023-02-18T08:27:42.851Z,65.33
2023-02-18T08:30:40.579Z,65.29
2023-02-18T08:33:38.100Z,65.24
2023-02-18T08:36:35.854Z,65.18
2023-02-18T08:39:33.585Z,64.95
2023-02-18T08:42:31.227Z,64.73
2023-02-18T08:45:28.891Z,64.54
2023-02-18T08:48:26.350Z,64.27
2023-02-18T08:51:24.148Z,63.99
2023-02-18T08:54:21.621Z,63.74
2023-02-18T08:57:19.408Z,63.48
2023-02-18T09:00:17.007Z,63.26
2023-02-18T09:03:14.842Z,62.78
2023-02-18T09:06:12.314Z,62.62
2023-02-18T09:09:10.566Z,62.41
2023-02-18T09:12:08.318Z,62.20
2023-02-18T09:15:06.082Z,62.08
2023-02-18T09:18:03.860Z,62.04
2023-02-18T09:21:01.315Z,61.92
2023-02-18T09:23:59.075Z,61.84
2023-02-18T09:26:56.536Z,61.73
2023-02-18T09:29:54.201Z,61.48
2023-02-18T09:32:51.972Z,61.30
2023-02-18T09:35:49.407Z,61.12
2023-02-18T09:38:47.509Z,61.17
2023-02-18T09:41:44.974Z,61.32
2023-02-18T09:44:42.740Z,61.47
2023-02-18T09:47:40.200Z,61.42
2023-02-18T09:50:37.829Z,61.49
2023-02-18T09:53:35.297Z,61.47
2023-02-18T09:56:33.084Z,61.33
2023-02-18T09:59:30.721Z,61.26
2023-02-18T10:02:28.306Z,61.27
2023-02-18T10:05:26.102Z,61.08
2023-02-18T10:08:23.555Z,61.06
2023-02-18T10:11:21.192Z,61.07
2023-02-18T10:14:18.658Z,61.09
2023-02-18T10:17:16.426Z,61.15
2023-02-18T10:20:13.901Z,61.17
2023-02-18T10:23:11.526Z,61.07
2023-02-18T10:26:09.398Z,60.92
2023-02-18T10:29:06.986Z,60.47
2023-02-18T10:32:04.839Z,59.88
2023-02-18T10:35:02.361Z,59.32
2023-02-18T10:38:00.194Z,58.21
2023-02-18T10:40:59.690Z,56.78
2023-02-18T10:43:57.888Z,55.27
2023-02-18T10:46:55.664Z,53.29
2023-02-18T10:49:53.172Z,51.78
2023-02-18T10:52:50.876Z,50.70
2023-02-18T10:55:49.254Z,49.97
2023-02-18T10:58:46.899Z,49.88
2023-02-18T11:01:44.428Z,49.78
2023-02-18T11:04:42.338Z,50.23
2023-02-18T11:07:40.093Z,50.42
2023-02-18T11:10:37.576Z,50.87
2023-02-18T11:13:35.276Z,51.43
2023-02-18T11:16:32.841Z,51.76
2023-02-18T11:19:30.548Z,52.13
2023-02-18T11:22:28.283Z,52.69
2023-02-18T11:25:25.796Z,52.98
2023-02-18T11:28:23.541Z,53.42
2023-02-18T11:31:21.427Z,53.65
2023-02-18T11:34:19.295Z,54.02
2023-02-18T11:37:16.755Z,54.34
2023-02-18T11:40:14.607Z,54.67
2023-02-18T11:43:12.358Z,54.89
2023-02-18T11:46:09.812Z,54.94
2023-02-18T11:49:07.433Z,55.07
2023-02-18T11:52:04.910Z,55.32
2023-02-18T11:55:03.406Z,55.53
2023-02-18T11:58:00.959Z,55.63
2023-02-18T12:00:58.909Z,55.71
2023-02-18T12:03:56.411Z,55.75
2023-02-18T12:06:54.232Z,55.63
2023-02-18T12:09:52.045Z,55.42
2023-02-18T12:12:49.525Z,54.92
2023-02-18T12:15:47.309Z,54.38
2023-02-18T12:18:44.821Z,54.04
2023-02-18T12:21:42.555Z,53.70
2023-02-18T12:24:40.263Z,53.75
2023-02-18T12:27:38.271Z,53.66
2023-02-18T12:30:36.407Z,53.29
2023-02-18T12:33:37.042Z,52.95
2023-02-18T12:36:34.965Z,52.85
2023-02-18T12:39:33.180Z,52.95
2023-02-18T12:42:32.627Z,52.79
2023-02-18T12:45:30.199Z,52.78
2023-02-18T12:48:28.203Z,52.86
2023-02-18T12:51:25.914Z,52.83
2023-02-18T12:54:23.715Z,52.85
2023-02-18T12:57:21.404Z,52.56
2023-02-18T13:00:18.868Z,52.05
2023-02-18T13:03:16.654Z,51.95
2023-02-18T13:06:14.370Z,51.84
2023-02-18T13:09:12.530Z,51.71
2023-02-18T13:12:10.028Z,51.22
2023-02-18T13:15:07.799Z,51.18
2023-02-18T13:18:05.423Z,50.98
2023-02-18T13:21:05.472Z,50.98
2023-02-18T13:24:03.520Z,50.82
2023-02-18T13:27:01.372Z,50.15
2023-02-18T13:29:59.209Z,49.74
2023-02-18T13:32:56.702Z,49.78
2023-02-18T13:35:54.661Z,49.23
2023-02-18T13:38:52.529Z,48.98
2023-02-18T13:41:50.344Z,48.84
2023-02-18T13:44:47.943Z,48.85
2023-02-18T13:47:45.708Z,48.91
2023-02-18T13:50:43.490Z,48.72
2023-02-18T13:53:42.826Z,48.78
2023-02-18T13:56:40.879Z,48.46
2023-02-18T13:59:38.607Z,48.52
2023-02-18T14:02:36.485Z,48.42
2023-02-18T14:05:34.422Z,48.25
2023-02-18T14:08:32.218Z,48.28
2023-02-18T14:11:30.008Z,48.24
2023-02-18T14:14:27.783Z,48.26
2023-02-18T14:17:27.028Z,48.44
2023-02-18T14:20:26.985Z,48.62
2023-02-18T14:23:24.487Z,48.57
2023-02-18T14:26:22.692Z,48.82
2023-02-18T14:29:20.530Z,48.89
2023-02-18T14:32:18.402Z,49.01
2023-02-18T14:35:15.929Z,49.25
2023-02-18T14:38:13.889Z,49.42
2023-02-18T14:41:12.389Z,49.64
2023-02-18T14:44:10.416Z,49.81
2023-02-18T14:47:08.592Z,49.95
2023-02-18T14:50:06.677Z,50.07
2023-02-18T14:53:04.333Z,50.20
2023-02-18T14:56:01.831Z,50.44
2023-02-18T14:58:59.679Z,50.63
2023-02-18T15:01:57.288Z,50.70
2023-02-18T15:04:56.002Z,50.79
2023-02-18T15:07:54.178Z,50.97
2023-02-18T15:10:52.293Z,51.12
2023-02-18T15:13:50.573Z,51.23
2023-02-18T15:16:48.106Z,51.30
2023-02-18T15:19:46.467Z,51.35
2023-02-18T15:22:44.007Z,51.42
2023-02-18T15:25:42.336Z,51.38
2023-02-18T15:28:40.608Z,51.47
2023-02-18T15:31:38.497Z,51.48
2023-02-18T15:34:36.426Z,51.53
2023-02-18T15:37:33.937Z,51.62
2023-02-18T15:40:32.293Z,51.66
2023-02-18T15:43:31.745Z,51.72
2023-02-18T15:46:29.343Z,52.02
2023-02-18T15:49:27.637Z,52.01
2023-02-18T15:52:25.801Z,52.04
2023-02-18T15:55:24.208Z,52.14
2023-02-18T15:58:21.755Z,52.23
2023-02-18T16:01:20.757Z,52.34
2023-02-18T16:04:18.863Z,52.47
2023-02-18T16:07:17.211Z,52.60
2023-02-18T16:10:16.351Z,52.69
2023-02-18T16:13:15.113Z,52.80
2023-02-18T16:16:13.704Z,52.90
2023-02-18T16:19:14.216Z,52.99
2023-02-18T16:22:11.885Z,53.00
2023-02-18T16:25:10.100Z,53.08
2023-02-18T16:28:08.542Z,53.00
2023-02-18T16:31:06.947Z,52.99
2023-02-18T16:34:04.541Z,52.96
2023-02-18T16:37:20.161Z,52.78
2023-02-18T16:40:18.869Z,52.74
2023-02-18T16:43:16.971Z,52.72
2023-02-18T16:46:16.149Z,52.70
2023-02-18T16:49:14.723Z,52.70
2023-02-18T16:52:12.588Z,52.63
2023-02-18T16:55:10.913Z,52.68
2023-02-18T16:58:09.157Z,52.66
2023-02-18T17:01:07.667Z,52.67
2023-02-18T17:04:09.187Z,52.63
2023-02-18T17:07:07.612Z,52.71
2023-02-18T17:10:06.164Z,52.72
2023-02-18T17:13:04.365Z,52.72
2023-02-18T17:16:02.360Z,52.78
2023-02-18T17:19:02.456Z,52.79
2023-02-18T17:22:00.759Z,52.80
2023-02-18T17:24:58.642Z,52.76
2023-02-18T17:27:56.907Z,52.77
2023-02-18T17:30:57.279Z,52.79
2023-02-18T17:33:55.821Z,52.78
2023-02-18T17:36:54.460Z,52.83
2023-02-18T17:39:52.423Z,52.88
2023-02-18T17:42:51.336Z,52.97
2023-02-18T17:45:49.000Z,53.00
2023-02-18T17:48:47.777Z,53.06
2023-02-18T17:51:45.869Z,53.15
2023-02-18T17:54:45.816Z,53.19
2023-02-18T17:57:45.696Z,53.25
2023-02-18T18:00:43.656Z,53.34
2023-02-18T18:03:41.949Z,53.47
2023-02-18T18:06:43.190Z,53.58
2023-02-18T18:09:40.908Z,53.74
2023-02-18T18:12:38.366Z,53.89
2023-02-18T18:15:38.024Z,54.02
2023-02-18T18:18:38.374Z,54.12
2023-02-18T18:21:36.758Z,54.20
2023-02-18T18:24:35.675Z,54.30
2023-02-18T18:27:35.634Z,54.39
2023-02-18T18:30:33.500Z,54.48
2023-02-18T18:33:32.726Z,54.59
2023-02-18T18:36:31.423Z,54.72
2023-02-18T18:39:32.760Z,54.83
2023-02-18T18:42:31.402Z,54.97
2023-02-18T18:45:30.063Z,55.07
2023-02-18T18:48:29.035Z,55.14
2023-02-18T18:51:28.033Z,55.26
2023-02-18T18:54:26.618Z,55.36
2023-02-18T18:57:25.721Z,55.40
2023-02-18T19:00:24.511Z,55.46
2023-02-18T19:03:22.854Z,55.53
2023-02-18T19:06:22.907Z,55.64
2023-02-18T19:09:20.449Z,55.75
2023-02-18T19:12:18.706Z,55.87
2023-02-18T19:15:18.969Z,55.99
2023-02-18T19:18:18.270Z,56.12
2023-02-18T19:21:17.407Z,56.22
2023-02-18T19:24:15.442Z,56.35
2023-02-18T19:27:15.410Z,56.50
2023-02-18T19:30:14.369Z,56.61
2023-02-18T19:33:12.226Z,56.70
2023-02-18T19:36:10.670Z,56.80
2023-02-18T19:39:08.696Z,56.90
2023-02-18T19:42:09.971Z,56.99
2023-02-18T19:45:08.728Z,57.07
2023-02-18T19:48:08.029Z,57.13
2023-02-18T19:51:06.615Z,57.20
2023-02-18T19:54:05.037Z,57.29
2023-02-18T19:57:05.990Z,57.33
2023-02-18T20:03:23.591Z,57.44
2023-02-18T20:06:22.610Z,57.50
2023-02-18T20:09:21.379Z,57.58
2023-02-18T20:12:20.177Z,57.62
2023-02-18T20:15:19.279Z,57.67
2023-02-18T20:18:27.230Z,57.70
2023-02-18T20:21:27.909Z,57.72
2023-02-18T20:24:26.608Z,57.73
2023-02-18T20:27:24.852Z,57.71
2023-02-18T20:30:27.302Z,57.77
2023-02-18T20:33:26.269Z,57.79
2023-02-18T20:36:24.939Z,57.80
2023-02-18T20:39:25.184Z,57.80
2023-02-18T20:42:23.848Z,57.85
2023-02-18T20:45:22.848Z,57.90
2023-02-18T20:48:21.950Z,57.93
2023-02-18T20:51:20.335Z,57.92
2023-02-18T20:54:23.685Z,57.90
2023-02-18T20:57:22.008Z,57.91
2023-02-18T21:00:23.154Z,57.90
2023-02-18T21:03:21.270Z,57.92
2023-02-18T21:06:19.842Z,57.99
2023-02-18T21:09:18.260Z,58.01
2023-02-18T21:12:16.682Z,58.09
2023-02-18T21:15:16.191Z,58.09
2023-02-18T21:18:15.079Z,58.11
2023-02-18T21:21:13.979Z,58.20
2023-02-18T21:24:12.173Z,58.24
2023-02-18T21:27:13.601Z,58.30
2023-02-18T21:30:12.791Z,58.35
2023-02-18T21:33:13.555Z,58.42
2023-02-18T21:36:13.849Z,58.50
2023-02-18T21:39:12.172Z,58.60
2023-02-18T21:42:11.027Z,58.67
2023-02-18T21:45:10.235Z,58.73
2023-02-18T21:48:22.232Z,58.83
2023-02-18T21:51:40.783Z,58.89
2023-02-18T21:54:40.311Z,59.00
2023-02-18T21:57:39.050Z,59.03
2023-02-18T22:00:37.369Z,59.11
2023-02-18T22:03:35.164Z,59.22
2023-02-18T22:06:32.836Z,59.28
2023-02-18T22:09:30.584Z,59.36
2023-02-18T22:12:28.224Z,59.45
2023-02-18T22:15:25.896Z,59.50
2023-02-18T22:18:23.377Z,59.59
2023-02-18T22:21:21.279Z,59.64
2023-02-18T22:24:18.825Z,59.69
2023-02-18T22:27:16.689Z,59.78
2023-02-18T22:30:14.411Z,59.84
2023-02-18T22:33:11.907Z,59.89
2023-02-18T22:36:09.564Z,59.90
2023-02-18T22:39:07.022Z,59.97
2023-02-18T22:42:04.624Z,60.01
2023-02-18T22:45:02.903Z,60.09
2023-02-18T22:48:00.527Z,60.07
2023-02-18T22:50:57.990Z,60.08
2023-02-18T22:53:55.745Z,60.08
2023-02-18T22:56:53.418Z,60.08
2023-02-18T22:59:50.860Z,60.09
2023-02-18T23:02:48.644Z,60.10
2023-02-18T23:05:46.471Z,60.14
2023-02-18T23:08:44.143Z,60.17
2023-02-18T23:11:41.584Z,60.18
2023-02-18T23:14:39.290Z,60.20
2023-02-18T23:17:37.070Z,60.20
2023-02-18T23:20:52.104Z,60.23
2023-02-18T23:23:49.908Z,60.27
2023-02-18T23:26:47.378Z,60.30
2023-02-18T23:29:45.137Z,60.31
2023-02-18T23:32:42.902Z,60.38
2023-02-18T23:35:40.352Z,60.47
2023-02-18T23:38:38.125Z,60.57
2023-02-18T23:41:35.595Z,60.62
2023-02-18T23:44:33.331Z,60.68
2023-02-18T23:47:30.791Z,60.78
2023-02-18T23:50:28.472Z,60.85
2023-02-18T23:53:25.930Z,60.96
2023-02-18T23:56:23.622Z,61.01
2023-02-18T23:59:21.384Z,61.00
